Terminal Aerodrome Forecast
Issued by NWS

Home | Current Version | Previous Version | Text Only | Print | Product List | Glossary On
Versions: 1 2 3 4 5 6 7 8 9 10 11 12 13 14 15 16 17 18 19 20 21 22
000
FTUS44 KCRP 232340
TAFALI
TAF
KALI 232340Z 2400/2424 14020G28KT P6SM SCT200
     FM240230 15012G18KT P6SM SCT250
     FM240900 16008KT P6SM BKN015
     FM241500 17012G22KT P6SM VCSH BKN020
     FM241800 18010KT P6SM VCTS SCT035CB BKN150 PROB30 2419/2423
      VRB20G30KT 3SM TSRA BKN030CB OVC150=

USA.gov is the U.S. government's official web portal to all federal, state and local government web resources and services.